Portada
METAR-TAF:

METAR-TAF

Aeroports :

George_Air_Force_Base

Victorville, Califòrnia, Estats Units d'Amèrica

latitud: 34-35N, longitud: 117-23W, altitud: 876 m

Observació

L'informe es va fer fa 12 minuts, a les 08:55 UTC
Vent calma
Temperatura 24°C
Humitat 20%
Pressió 1017 hPa
Visibilitat: 16.1 km
Cel clar

METAR: KVCV 230855Z AUTO 00000KT 10SM CLR 24/M00 A3002 RMK AO2

Hora: 02:07 (09:07 UTC)


TAF: manca

Observacions i pronòstics meteorològics de més de 4000 aeroports (METAR i TAF).

Les estacions disponibles són els punts grocs i vermells al mapa.

Posi el ratolí al punt desitjat per veure el nom de l'estació.

Feu clic per veure les observacions i els pronòstics meteorològics.

Per canviar el mapa: feu clic els botons verds amb una creu de color negre per apropar; al botó verd amb un guió per allunyar la imatge; o en les fletxes verdes per a mapes adjacents.


METAR-TAF: